Time;durP1;ratioP1;P1;durP2;ratioP2;P2;SDS_P1;SDS_P2;PMS_P1;PMS_P2;Temp;Humidity;BMP_temperature;BMP_pressure;BME280_temperature;BME280_humidity;BME280_pressure;Samples;Min_cycle;Max_cycle;Signal;HPM_P1;HPM_P2
2022/07/30 00:00:30;;;;;;;9.98;2.60;;;;;;;;;;5007774;28;20045;-66
2022/07/30 00:02:56;;;;;;;9.70;2.58;;;;;;;;;;5023105;28;20131;-67
2022/07/30 00:05:22;;;;;;;7.35;2.60;;;;;;;;;;5024665;28;20602;-66
2022/07/30 00:07:48;;;;;;;8.65;2.60;;;;;;;;;;5026396;28;20021;-66
2022/07/30 00:10:14;;;;;;;7.32;2.47;;;;;;;;;;5025194;28;20029;-66
2022/07/30 00:12:40;;;;;;;6.85;2.28;;;;;;;;;;5003153;28;20571;-67
2022/07/30 00:15:07;;;;;;;6.88;2.10;;;;;;;;;;5008359;28;20430;-67
2022/07/30 00:17:33;;;;;;;9.55;2.35;;;;;;;;;;5029949;28;20431;-66
2022/07/30 00:19:59;;;;;;;9.63;2.85;;;;;;;;;;5024541;28;20059;-66
2022/07/30 00:22:25;;;;;;;10.15;2.80;;;;;;;;;;5011255;28;20039;-66
2022/07/30 00:24:51;;;;;;;9.73;2.78;;;;;;;;;;5032415;28;20433;-66
2022/07/30 00:27:18;;;;;;;12.82;3.00;;;;;;;;;;5028259;28;20132;-66
2022/07/30 00:29:44;;;;;;;12.55;3.08;;;;;;;;;;5037888;28;20027;-67
2022/07/30 00:32:10;;;;;;;11.38;2.50;;;;;;;;;;5031931;28;20029;-67
2022/07/30 00:34:36;;;;;;;9.07;2.40;;;;;;;;;;5033147;28;20851;-67
2022/07/30 00:37:02;;;;;;;8.20;2.72;;;;;;;;;;5031339;28;20032;-66
2022/07/30 00:39:29;;;;;;;9.00;3.00;;;;;;;;;;5030562;28;20564;-67
2022/07/30 00:41:56;;;;;;;10.27;3.28;;;;;;;;;;5031470;28;20036;-67
2022/07/30 00:44:23;;;;;;;12.10;3.00;;;;;;;;;;5012114;28;20112;-66
2022/07/30 00:46:49;;;;;;;10.07;2.80;;;;;;;;;;5014026;28;20088;-67
2022/07/30 00:49:15;;;;;;;8.73;3.05;;;;;;;;;;5028793;28;20421;-67
2022/07/30 00:51:41;;;;;;;8.23;2.60;;;;;;;;;;5030629;28;20136;-67
2022/07/30 00:54:07;;;;;;;8.55;2.47;;;;;;;;;;5028303;28;20036;-67
2022/07/30 00:56:33;;;;;;;10.93;2.80;;;;;;;;;;5024936;28;20040;-68
2022/07/30 00:58:59;;;;;;;7.43;2.42;;;;;;;;;;5026921;28;20172;-67
2022/07/30 01:01:26;;;;;;;10.52;3.83;;;;;;;;;;5012630;28;20036;-67
2022/07/30 01:03:52;;;;;;;8.77;3.00;;;;;;;;;;5030410;28;20025;-67
2022/07/30 01:06:18;;;;;;;9.15;2.80;;;;;;;;;;5029847;28;20374;-67
2022/07/30 01:08:44;;;;;;;7.80;2.40;;;;;;;;;;5031029;28;20027;-67
2022/07/30 01:11:11;;;;;;;8.63;2.58;;;;;;;;;;5029215;28;20033;-66
2022/07/30 01:13:37;;;;;;;9.40;2.83;;;;;;;;;;5027712;28;20141;-67
2022/07/30 01:16:04;;;;;;;10.57;2.70;;;;;;;;;;5029245;28;20438;-67
2022/07/30 01:21:20;;;;;;;7.45;2.35;;;;;;;;;;5030176;28;20152;-67
2022/07/30 01:23:47;;;;;;;8.55;2.65;;;;;;;;;;5031323;28;20032;-66
2022/07/30 01:26:18;;;;;;;9.18;2.42;;;;;;;;;;5029997;28;20021;-66
2022/07/30 01:28:53;;;;;;;10.18;2.88;;;;;;;;;;5028981;28;20707;-67
2022/07/30 01:31:20;;;;;;;9.63;3.08;;;;;;;;;;5030095;28;20028;-66
2022/07/30 01:33:47;;;;;;;11.07;2.30;;;;;;;;;;5030549;28;20036;-66
2022/07/30 01:36:16;;;;;;;8.23;2.45;;;;;;;;;;5029138;28;20071;-66
2022/07/30 01:38:43;;;;;;;8.75;2.70;;;;;;;;;;5028647;28;20076;-66
2022/07/30 01:41:10;;;;;;;9.93;2.33;;;;;;;;;;5026362;28;20411;-66
2022/07/30 01:43:38;;;;;;;18.52;3.10;;;;;;;;;;5027626;28;20115;-65
2022/07/30 01:46:05;;;;;;;7.70;2.58;;;;;;;;;;5026684;28;20112;-66
2022/07/30 01:48:33;;;;;;;8.65;3.05;;;;;;;;;;5029580;28;20058;-67
2022/07/30 01:51:02;;;;;;;10.05;3.08;;;;;;;;;;5025576;28;20032;-66
2022/07/30 01:53:30;;;;;;;9.45;2.88;;;;;;;;;;5029476;28;20036;-66
2022/07/30 01:55:57;;;;;;;8.88;2.88;;;;;;;;;;5027304;28;20495;-67
2022/07/30 01:58:26;;;;;;;9.23;2.70;;;;;;;;;;5010250;28;20132;-67
2022/07/30 02:00:54;;;;;;;9.60;2.80;;;;;;;;;;5010760;28;20029;-67
2022/07/30 02:03:21;;;;;;;9.05;2.97;;;;;;;;;;5026193;28;20386;-67
2022/07/30 02:05:51;;;;;;;8.68;2.53;;;;;;;;;;5010633;28;20234;-67
2022/07/30 02:08:23;;;;;;;8.80;2.70;;;;;;;;;;5027101;28;20032;-67
2022/07/30 02:10:57;;;;;;;7.53;2.35;;;;;;;;;;5029563;28;20356;-67
2022/07/30 02:13:26;;;;;;;7.55;2.30;;;;;;;;;;5031446;28;20027;-67
2022/07/30 02:15:55;;;;;;;8.57;2.63;;;;;;;;;;5031292;28;20062;-67
2022/07/30 02:18:24;;;;;;;6.70;2.10;;;;;;;;;;5012359;28;20036;-67
2022/07/30 02:20:53;;;;;;;8.00;2.42;;;;;;;;;;5028872;28;20120;-67
2022/07/30 02:23:19;;;;;;;10.50;2.40;;;;;;;;;;5028549;28;20032;-67
2022/07/30 02:25:48;;;;;;;7.82;2.35;;;;;;;;;;5031005;28;20041;-67
2022/07/30 02:28:15;;;;;;;9.13;2.28;;;;;;;;;;5010867;28;20029;-67
2022/07/30 02:30:47;;;;;;;8.73;2.25;;;;;;;;;;5030728;28;20044;-67
2022/07/30 02:33:15;;;;;;;7.88;2.47;;;;;;;;;;5027986;28;20041;-67
2022/07/30 02:35:41;;;;;;;10.43;2.15;;;;;;;;;;5029680;28;21519;-67
2022/07/30 02:38:08;;;;;;;8.15;2.30;;;;;;;;;;5027464;28;20025;-67
2022/07/30 02:40:35;;;;;;;9.07;2.58;;;;;;;;;;5028730;28;20489;-68
2022/07/30 02:43:01;;;;;;;9.38;2.22;;;;;;;;;;5028920;28;20135;-66
2022/07/30 02:45:28;;;;;;;7.57;2.40;;;;;;;;;;5028444;28;20035;-66
2022/07/30 02:47:57;;;;;;;9.85;2.50;;;;;;;;;;5029339;28;20333;-66
2022/07/30 02:50:23;;;;;;;7.63;2.20;;;;;;;;;;5026371;28;20049;-66
2022/07/30 02:52:51;;;;;;;7.65;2.20;;;;;;;;;;5028666;28;20052;-66
2022/07/30 02:55:18;;;;;;;6.95;2.20;;;;;;;;;;5028471;28;20039;-66
2022/07/30 02:57:45;;;;;;;7.07;2.20;;;;;;;;;;5011598;28;20037;-66
2022/07/30 03:00:12;;;;;;;8.25;2.10;;;;;;;;;;5026731;28;20036;-66
2022/07/30 03:02:39;;;;;;;7.10;2.22;;;;;;;;;;5028474;28;20029;-66
2022/07/30 03:05:06;;;;;;;7.20;2.30;;;;;;;;;;5027234;28;20025;-67
2022/07/30 03:07:33;;;;;;;7.60;2.10;;;;;;;;;;5029213;28;20116;-67
2022/07/30 03:10:00;;;;;;;8.10;2.28;;;;;;;;;;5028587;28;20082;-67
2022/07/30 03:12:28;;;;;;;6.25;2.08;;;;;;;;;;5027795;28;20036;-66
2022/07/30 03:14:55;;;;;;;7.63;2.03;;;;;;;;;;5029178;28;20036;-68
2022/07/30 03:17:23;;;;;;;8.00;2.30;;;;;;;;;;5011848;28;20029;-67
2022/07/30 03:19:50;;;;;;;7.75;2.00;;;;;;;;;;5027179;28;20028;-66
2022/07/30 03:22:17;;;;;;;8.18;2.10;;;;;;;;;;5010372;28;20033;-67
2022/07/30 03:24:45;;;;;;;6.25;2.05;;;;;;;;;;5028639;28;20036;-66
2022/07/30 03:27:12;;;;;;;6.90;2.05;;;;;;;;;;5028058;28;20544;-67
2022/07/30 03:29:39;;;;;;;10.98;2.50;;;;;;;;;;5010613;28;20161;-67
2022/07/30 03:32:06;;;;;;;10.35;2.33;;;;;;;;;;5028330;28;20458;-66
2022/07/30 03:34:36;;;;;;;8.85;2.40;;;;;;;;;;5012566;28;20122;-66
2022/07/30 03:37:05;;;;;;;8.10;2.25;;;;;;;;;;5013603;28;20033;-66
2022/07/30 03:39:35;;;;;;;10.25;2.40;;;;;;;;;;5010764;28;20120;-67
2022/07/30 03:42:01;;;;;;;7.85;2.22;;;;;;;;;;5008427;28;20029;-66
2022/07/30 03:44:28;;;;;;;6.68;2.15;;;;;;;;;;5025864;28;20033;-66
2022/07/30 03:46:56;;;;;;;10.15;2.25;;;;;;;;;;5030302;28;20029;-66
2022/07/30 03:49:22;;;;;;;7.32;2.10;;;;;;;;;;5014257;28;20609;-66
2022/07/30 03:51:49;;;;;;;9.52;2.30;;;;;;;;;;5034403;28;20068;-66
2022/07/30 03:54:15;;;;;;;13.65;2.40;;;;;;;;;;5032263;28;20597;-66
2022/07/30 03:56:42;;;;;;;8.45;2.40;;;;;;;;;;5032964;28;20029;-66
2022/07/30 03:59:10;;;;;;;9.32;2.67;;;;;;;;;;5032160;28;20484;-66
2022/07/30 04:01:36;;;;;;;8.57;2.42;;;;;;;;;;5034020;28;20064;-66
2022/07/30 04:04:06;;;;;;;7.78;2.17;;;;;;;;;;5030925;28;20679;-67
2022/07/30 04:06:35;;;;;;;13.85;2.83;;;;;;;;;;5033305;28;20025;-66
2022/07/30 04:09:01;;;;;;;10.63;2.60;;;;;;;;;;5035375;28;20021;-66
2022/07/30 04:11:27;;;;;;;8.40;2.38;;;;;;;;;;5033576;28;20452;-66
2022/07/30 04:13:53;;;;;;;11.15;2.92;;;;;;;;;;5033607;28;20040;-66
2022/07/30 04:16:23;;;;;;;10.45;2.65;;;;;;;;;;5032293;28;20519;-66
2022/07/30 04:18:51;;;;;;;8.95;2.47;;;;;;;;;;5016528;28;20112;-66
2022/07/30 04:21:18;;;;;;;7.50;2.45;;;;;;;;;;5031693;28;20115;-66
2022/07/30 04:23:45;;;;;;;9.80;2.67;;;;;;;;;;5021054;28;20221;-66
2022/07/30 04:26:12;;;;;;;8.07;2.55;;;;;;;;;;5031548;28;20033;-66
2022/07/30 04:28:38;;;;;;;9.52;2.70;;;;;;;;;;5015633;28;20049;-66
2022/07/30 04:31:04;;;;;;;7.53;2.50;;;;;;;;;;5030782;28;20128;-66
2022/07/30 04:33:31;;;;;;;7.70;2.75;;;;;;;;;;5033548;28;20114;-66
2022/07/30 04:35:58;;;;;;;8.93;2.90;;;;;;;;;;5031785;28;20119;-66
2022/07/30 04:38:24;;;;;;;8.73;2.50;;;;;;;;;;5033260;28;20033;-66
2022/07/30 04:40:50;;;;;;;8.10;2.80;;;;;;;;;;5029855;28;20021;-66
2022/07/30 04:43:16;;;;;;;9.45;2.75;;;;;;;;;;5030306;28;20602;-65
2022/07/30 04:45:43;;;;;;;9.73;2.88;;;;;;;;;;5033956;28;20064;-66
2022/07/30 04:48:09;;;;;;;10.50;3.13;;;;;;;;;;5029949;28;20025;-68
2022/07/30 04:50:38;;;;;;;9.45;2.97;;;;;;;;;;5032516;28;20343;-66
2022/07/30 04:53:04;;;;;;;11.07;2.97;;;;;;;;;;5029617;28;20057;-66
2022/07/30 04:55:31;;;;;;;11.38;3.35;;;;;;;;;;5031399;28;20040;-66
2022/07/30 04:57:58;;;;;;;7.90;2.63;;;;;;;;;;5030345;28;20032;-66
2022/07/30 05:00:24;;;;;;;11.02;3.25;;;;;;;;;;5032093;28;20095;-66
2022/07/30 05:02:51;;;;;;;11.68;3.15;;;;;;;;;;5030645;28;20044;-66
2022/07/30 05:05:18;;;;;;;10.75;2.83;;;;;;;;;;5030539;28;20791;-66
2022/07/30 05:07:44;;;;;;;12.15;3.22;;;;;;;;;;5031428;28;20659;-66
2022/07/30 05:10:11;;;;;;;16.65;3.67;;;;;;;;;;5031300;28;20033;-65
2022/07/30 05:12:38;;;;;;;9.38;2.80;;;;;;;;;;5015740;28;20033;-66
2022/07/30 05:15:08;;;;;;;8.00;2.60;;;;;;;;;;5031375;28;20036;-66
2022/07/30 05:17:34;;;;;;;10.95;3.10;;;;;;;;;;5033183;28;20040;-66
2022/07/30 05:20:00;;;;;;;10.73;3.20;;;;;;;;;;5030637;28;20547;-66
2022/07/30 05:22:28;;;;;;;10.25;2.90;;;;;;;;;;5031576;28;20253;-66
2022/07/30 05:24:55;;;;;;;10.10;3.30;;;;;;;;;;5019247;28;20025;-66
2022/07/30 05:27:21;;;;;;;12.00;3.33;;;;;;;;;;5031882;28;20033;-67
2022/07/30 05:29:47;;;;;;;13.13;3.28;;;;;;;;;;5020756;28;20071;-66
2022/07/30 05:32:13;;;;;;;14.15;3.20;;;;;;;;;;5028426;28;21133;-66
2022/07/30 05:34:39;;;;;;;11.52;2.97;;;;;;;;;;5030622;28;20041;-66
2022/07/30 05:37:06;;;;;;;15.30;3.53;;;;;;;;;;5025339;28;20029;-66
2022/07/30 05:39:32;;;;;;;10.70;3.13;;;;;;;;;;5029659;28;20043;-66
2022/07/30 05:41:58;;;;;;;12.48;3.58;;;;;;;;;;5027112;28;20191;-66
2022/07/30 05:44:24;;;;;;;9.55;3.00;;;;;;;;;;5009073;28;20767;-66
2022/07/30 05:46:50;;;;;;;9.57;2.85;;;;;;;;;;5029415;28;20108;-66
2022/07/30 05:49:17;;;;;;;11.60;3.00;;;;;;;;;;5028387;28;20571;-67
2022/07/30 05:51:43;;;;;;;8.93;2.75;;;;;;;;;;5031930;28;20053;-66
2022/07/30 05:54:09;;;;;;;17.50;3.00;;;;;;;;;;5025412;28;20045;-67
2022/07/30 05:56:36;;;;;;;11.57;3.10;;;;;;;;;;5024912;28;20127;-66
2022/07/30 05:59:02;;;;;;;10.43;2.80;;;;;;;;;;5021613;28;20040;-66
2022/07/30 06:01:28;;;;;;;13.52;3.20;;;;;;;;;;5019920;28;20028;-67
2022/07/30 06:03:55;;;;;;;10.27;2.80;;;;;;;;;;5026216;28;20116;-66
2022/07/30 06:06:21;;;;;;;9.15;2.80;;;;;;;;;;5026920;28;20025;-67
2022/07/30 06:08:48;;;;;;;9.68;2.88;;;;;;;;;;5022357;28;20541;-67
2022/07/30 06:11:14;;;;;;;11.13;3.22;;;;;;;;;;5017682;28;20075;-66
2022/07/30 06:13:41;;;;;;;13.48;3.75;;;;;;;;;;5020054;28;20029;-67
2022/07/30 06:16:07;;;;;;;11.57;3.00;;;;;;;;;;5005888;28;20658;-66
2022/07/30 06:18:33;;;;;;;10.20;2.95;;;;;;;;;;5023192;28;20424;-66
2022/07/30 06:20:59;;;;;;;10.55;2.78;;;;;;;;;;5020885;28;20493;-65
2022/07/30 06:23:25;;;;;;;9.75;2.92;;;;;;;;;;5024532;28;20024;-66
2022/07/30 06:25:51;;;;;;;13.25;3.50;;;;;;;;;;5025302;28;20029;-65
2022/07/30 06:28:18;;;;;;;9.73;3.25;;;;;;;;;;5025075;28;20087;-67
2022/07/30 06:30:47;;;;;;;11.05;3.45;;;;;;;;;;5024517;28;20022;-66
2022/07/30 06:33:14;;;;;;;12.40;3.33;;;;;;;;;;5023385;28;20441;-66
2022/07/30 06:35:40;;;;;;;11.75;3.13;;;;;;;;;;5027752;28;20422;-67
2022/07/30 06:38:06;;;;;;;11.27;3.22;;;;;;;;;;5024526;28;20033;-67
2022/07/30 06:40:32;;;;;;;18.15;3.78;;;;;;;;;;5026393;28;20029;-67
2022/07/30 06:42:59;;;;;;;10.20;3.33;;;;;;;;;;5025570;28;20461;-66
2022/07/30 06:45:25;;;;;;;11.48;2.90;;;;;;;;;;5026714;28;20037;-67
2022/07/30 06:47:51;;;;;;;10.27;2.65;;;;;;;;;;5027908;28;20029;-67
2022/07/30 06:50:17;;;;;;;13.95;2.80;;;;;;;;;;5023769;28;20330;-67
2022/07/30 06:52:44;;;;;;;15.43;3.60;;;;;;;;;;5028153;28;20054;-66
2022/07/30 06:55:10;;;;;;;13.40;3.03;;;;;;;;;;5019516;28;20060;-66
2022/07/30 06:57:36;;;;;;;8.77;2.42;;;;;;;;;;5003270;28;20037;-67
2022/07/30 07:00:02;;;;;;;8.70;2.50;;;;;;;;;;5021542;28;20029;-66
2022/07/30 07:02:28;;;;;;;18.10;3.90;;;;;;;;;;5025123;28;20124;-66
2022/07/30 07:04:54;;;;;;;12.25;3.45;;;;;;;;;;5024082;28;20028;-66
2022/07/30 07:07:20;;;;;;;8.95;2.78;;;;;;;;;;5021834;28;20075;-66
2022/07/30 07:09:46;;;;;;;11.82;3.15;;;;;;;;;;5024276;28;20103;-66
2022/07/30 07:12:13;;;;;;;11.75;2.90;;;;;;;;;;5005469;28;20352;-67
2022/07/30 07:14:39;;;;;;;10.57;2.85;;;;;;;;;;5008326;28;21638;-66
2022/07/30 07:17:05;;;;;;;9.02;2.90;;;;;;;;;;5020269;28;20037;-67
2022/07/30 07:19:31;;;;;;;13.32;4.57;;;;;;;;;;5021795;28;20064;-66
2022/07/30 07:21:57;;;;;;;11.73;4.07;;;;;;;;;;5019868;28;20793;-67
2022/07/30 07:24:23;;;;;;;8.38;2.92;;;;;;;;;;5023384;28;20022;-67
2022/07/30 07:26:49;;;;;;;10.18;2.90;;;;;;;;;;5000941;28;20737;-66
2022/07/30 07:29:15;;;;;;;8.10;2.70;;;;;;;;;;5002663;28;21127;-67
2022/07/30 07:31:41;;;;;;;21.88;16.83;;;;;;;;;;5020129;28;20120;-66
2022/07/30 07:34:08;;;;;;;22.05;14.32;;;;;;;;;;5021359;28;20033;-66
2022/07/30 07:36:35;;;;;;;19.15;10.50;;;;;;;;;;5024709;28;20360;-66
2022/07/30 07:39:01;;;;;;;15.75;7.95;;;;;;;;;;5020812;28;20029;-66
2022/07/30 07:41:27;;;;;;;14.93;6.05;;;;;;;;;;5022213;28;20572;-68
2022/07/30 07:43:53;;;;;;;8.93;3.58;;;;;;;;;;5002287;28;20171;-66
2022/07/30 07:46:19;;;;;;;9.73;3.00;;;;;;;;;;5022818;28;20035;-66
2022/07/30 07:48:45;;;;;;;7.00;2.42;;;;;;;;;;5022835;28;20025;-67
2022/07/30 07:51:11;;;;;;;7.72;2.50;;;;;;;;;;5022173;28;20285;-66
2022/07/30 07:53:37;;;;;;;6.40;2.10;;;;;;;;;;5006036;28;20494;-66
2022/07/30 07:56:07;;;;;;;8.98;2.33;;;;;;;;;;5005825;28;20558;-67
2022/07/30 07:58:33;;;;;;;8.45;1.95;;;;;;;;;;5003331;28;20024;-67
2022/07/30 08:00:59;;;;;;;7.38;2.15;;;;;;;;;;5020750;28;20111;-66
2022/07/30 08:03:25;;;;;;;7.43;2.20;;;;;;;;;;5019149;28;20404;-68
2022/07/30 08:05:51;;;;;;;8.45;2.20;;;;;;;;;;5022942;28;20102;-66
2022/07/30 08:08:17;;;;;;;7.93;2.13;;;;;;;;;;5022974;28;20053;-66
2022/07/30 08:10:43;;;;;;;7.38;2.15;;;;;;;;;;5023713;28;20036;-67
2022/07/30 08:13:09;;;;;;;11.73;2.42;;;;;;;;;;5004860;28;20150;-66
2022/07/30 08:15:36;;;;;;;10.57;2.40;;;;;;;;;;5023060;28;20138;-66
2022/07/30 08:18:02;;;;;;;8.75;2.28;;;;;;;;;;5021911;28;20588;-66
2022/07/30 08:20:28;;;;;;;8.02;2.50;;;;;;;;;;5019884;28;20032;-67
2022/07/30 08:22:55;;;;;;;6.22;1.92;;;;;;;;;;5021485;28;20037;-66
2022/07/30 08:25:22;;;;;;;8.95;2.00;;;;;;;;;;5020725;28;20039;-66
2022/07/30 08:27:48;;;;;;;10.05;3.10;;;;;;;;;;5008295;28;20056;-66
2022/07/30 08:30:14;;;;;;;11.43;2.90;;;;;;;;;;5018252;28;20352;-67
2022/07/30 08:32:40;;;;;;;9.57;3.10;;;;;;;;;;5003375;28;20494;-68
2022/07/30 08:35:07;;;;;;;9.55;3.35;;;;;;;;;;5023034;28;20517;-67
2022/07/30 08:37:33;;;;;;;9.88;3.78;;;;;;;;;;5027322;28;20017;-67
2022/07/30 08:39:59;;;;;;;11.10;4.68;;;;;;;;;;5004449;28;20033;-67
2022/07/30 08:42:26;;;;;;;8.68;2.75;;;;;;;;;;5026652;28;20467;-68
2022/07/30 08:44:53;;;;;;;9.15;2.80;;;;;;;;;;5026654;28;20025;-69
2022/07/30 08:47:23;;;;;;;8.50;2.65;;;;;;;;;;5006732;28;20028;-68
2022/07/30 08:49:49;;;;;;;9.75;2.53;;;;;;;;;;5007158;28;20116;-67
2022/07/30 08:52:16;;;;;;;11.60;2.38;;;;;;;;;;5025111;28;20136;-72
2022/07/30 08:54:43;;;;;;;11.45;3.40;;;;;;;;;;5027440;28;20036;-72
2022/07/30 08:57:09;;;;;;;11.30;2.67;;;;;;;;;;5024627;28;20032;-72
2022/07/30 08:59:37;;;;;;;10.27;2.33;;;;;;;;;;5047446;28;20625;-71
2022/07/30 09:02:03;;;;;;;9.98;2.35;;;;;;;;;;5026412;28;20033;-73
2022/07/30 09:04:30;;;;;;;8.73;2.50;;;;;;;;;;5041693;28;20035;-73
2022/07/30 09:06:56;;;;;;;7.40;2.20;;;;;;;;;;5041327;28;20040;-73
2022/07/30 09:09:22;;;;;;;9.68;2.08;;;;;;;;;;5027940;28;20631;-72
2022/07/30 09:11:48;;;;;;;8.68;2.50;;;;;;;;;;5008245;28;20064;-73
2022/07/30 09:14:15;;;;;;;9.73;2.47;;;;;;;;;;5020711;28;20063;-73
2022/07/30 09:16:43;;;;;;;10.60;2.67;;;;;;;;;;5024517;28;20064;-73
2022/07/30 09:19:17;;;;;;;11.23;2.50;;;;;;;;;;5008046;28;20098;-73
2022/07/30 09:21:54;;;;;;;9.88;2.80;;;;;;;;;;5021985;28;20045;-73
2022/07/30 09:24:20;;;;;;;9.82;2.95;;;;;;;;;;5022555;28;20137;-72
2022/07/30 09:26:53;;;;;;;11.65;3.45;;;;;;;;;;5021540;28;20025;-73
2022/07/30 09:29:21;;;;;;;10.65;2.92;;;;;;;;;;5020817;28;20024;-72
2022/07/30 09:32:01;;;;;;;10.20;2.60;;;;;;;;;;5004885;28;20552;-73
2022/07/30 09:34:34;;;;;;;8.18;2.17;;;;;;;;;;5020811;28;20979;-73
2022/07/30 09:37:02;;;;;;;9.60;2.50;;;;;;;;;;5005306;28;20614;-72
2022/07/30 09:39:38;;;;;;;10.68;2.38;;;;;;;;;;5021045;28;20603;-73
2022/07/30 09:42:16;;;;;;;8.40;2.88;;;;;;;;;;5022423;28;20051;-73
2022/07/30 09:44:43;;;;;;;11.13;3.63;;;;;;;;;;5023879;28;20071;-73
2022/07/30 09:47:09;;;;;;;11.60;3.40;;;;;;;;;;5020775;28;20032;-73
2022/07/30 09:49:36;;;;;;;12.90;3.15;;;;;;;;;;5021477;28;20032;-73
2022/07/30 09:52:02;;;;;;;10.15;2.60;;;;;;;;;;5025970;28;20448;-73
2022/07/30 09:54:44;;;;;;;8.75;2.83;;;;;;;;;;5025824;28;20032;-73
2022/07/30 09:57:11;;;;;;;14.38;4.47;;;;;;;;;;5000924;28;20068;-74
2022/07/30 09:59:37;;;;;;;10.13;3.42;;;;;;;;;;5020377;28;20025;-73
2022/07/30 10:02:03;;;;;;;13.10;3.50;;;;;;;;;;4999085;28;20378;-73
2022/07/30 10:04:30;;;;;;;9.50;3.25;;;;;;;;;;5021468;28;20271;-74
2022/07/30 10:06:57;;;;;;;10.18;2.78;;;;;;;;;;5000824;28;20075;-73
2022/07/30 10:09:35;;;;;;;9.63;2.53;;;;;;;;;;5023788;28;20453;-72
2022/07/30 10:12:03;;;;;;;10.75;3.15;;;;;;;;;;5006320;28;21560;-73
2022/07/30 10:14:30;;;;;;;11.70;3.10;;;;;;;;;;5023689;28;20183;-72
2022/07/30 10:16:57;;;;;;;11.57;3.33;;;;;;;;;;5019050;28;20029;-73
2022/07/30 10:19:24;;;;;;;17.13;2.65;;;;;;;;;;5022483;28;20103;-73
2022/07/30 10:21:52;;;;;;;9.82;2.22;;;;;;;;;;5022218;28;20067;-73
2022/07/30 10:24:18;;;;;;;11.40;2.30;;;;;;;;;;5021473;28;20031;-74
2022/07/30 10:26:46;;;;;;;12.40;2.63;;;;;;;;;;5022073;28;20021;-73
2022/07/30 10:29:15;;;;;;;10.95;2.42;;;;;;;;;;5023830;28;20045;-71
2022/07/30 10:31:41;;;;;;;10.68;2.72;;;;;;;;;;5024189;28;20096;-70
2022/07/30 10:34:09;;;;;;;12.73;2.53;;;;;;;;;;5022168;28;20022;-71
2022/07/30 10:36:35;;;;;;;8.88;2.30;;;;;;;;;;5024216;28;20060;-73
2022/07/30 10:39:02;;;;;;;10.48;2.42;;;;;;;;;;4999362;28;20393;-74
2022/07/30 10:41:46;;;;;;;8.38;2.25;;;;;;;;;;5020855;28;20084;-72
2022/07/30 10:44:12;;;;;;;11.02;2.78;;;;;;;;;;5006554;28;20025;-75
2022/07/30 10:46:47;;;;;;;9.68;2.33;;;;;;;;;;5025208;28;20037;-73
2022/07/30 10:49:14;;;;;;;11.23;2.55;;;;;;;;;;5005986;28;20147;-74
2022/07/30 10:51:49;;;;;;;10.73;2.58;;;;;;;;;;5010657;28;20049;-73
2022/07/30 10:54:33;;;;;;;7.82;2.47;;;;;;;;;;5020441;28;20029;-74
2022/07/30 10:57:13;;;;;;;8.57;2.13;;;;;;;;;;5021092;28;20064;-71
2022/07/30 10:59:54;;;;;;;10.85;2.83;;;;;;;;;;5019288;28;20037;-73
2022/07/30 11:02:21;;;;;;;8.55;2.28;;;;;;;;;;5020288;28;20024;-72
2022/07/30 11:04:48;;;;;;;10.63;2.72;;;;;;;;;;5023539;28;20230;-71
2022/07/30 11:07:23;;;;;;;9.20;2.40;;;;;;;;;;5021791;28;20029;-71
2022/07/30 11:09:49;;;;;;;9.55;2.30;;;;;;;;;;5021692;28;20515;-72
2022/07/30 11:12:35;;;;;;;10.07;2.30;;;;;;;;;;5025316;28;21265;-72
2022/07/30 11:15:02;;;;;;;9.27;2.28;;;;;;;;;;5020961;28;20051;-72
2022/07/30 11:17:48;;;;;;;10.70;2.40;;;;;;;;;;5023491;28;20485;-73
2022/07/30 11:20:14;;;;;;;8.77;2.55;;;;;;;;;;5019165;28;20124;-73
2022/07/30 11:22:43;;;;;;;10.60;2.63;;;;;;;;;;5023644;28;20445;-73
2022/07/30 11:25:11;;;;;;;9.80;2.40;;;;;;;;;;5024022;28;20024;-74
2022/07/30 11:27:49;;;;;;;11.38;2.88;;;;;;;;;;5021134;28;20022;-73
2022/07/30 11:30:15;;;;;;;11.13;2.55;;;;;;;;;;5020228;28;20477;-72
2022/07/30 11:32:42;;;;;;;8.02;2.13;;;;;;;;;;5023095;28;20556;-73
2022/07/30 11:35:17;;;;;;;9.40;2.30;;;;;;;;;;5022018;28;20032;-73
2022/07/30 11:37:59;;;;;;;11.07;2.67;;;;;;;;;;5022497;28;20033;-72
2022/07/30 11:40:26;;;;;;;10.68;2.50;;;;;;;;;;5021504;28;20055;-71
2022/07/30 11:43:12;;;;;;;11.38;2.50;;;;;;;;;;5021746;28;20090;-72
2022/07/30 11:45:39;;;;;;;10.63;2.35;;;;;;;;;;5020102;28;20030;-72
2022/07/30 11:48:09;;;;;;;7.50;2.38;;;;;;;;;;5014095;28;20096;-72
2022/07/30 11:50:36;;;;;;;14.35;2.78;;;;;;;;;;5018292;28;20227;-72
2022/07/30 11:53:07;;;;;;;13.32;2.78;;;;;;;;;;5020292;28;20067;-72
2022/07/30 11:55:34;;;;;;;10.32;2.75;;;;;;;;;;5024418;28;20028;-72
2022/07/30 11:58:02;;;;;;;12.20;2.40;;;;;;;;;;5019611;28;20037;-72
2022/07/30 12:00:35;;;;;;;12.00;2.78;;;;;;;;;;5020354;28;20029;-72
2022/07/30 12:03:07;;;;;;;12.18;2.50;;;;;;;;;;5021963;28;20044;-71
2022/07/30 12:05:33;;;;;;;10.43;2.80;;;;;;;;;;5022598;28;20036;-69
2022/07/30 12:07:59;;;;;;;10.95;2.80;;;;;;;;;;5022703;28;20029;-66
2022/07/30 12:10:25;;;;;;;11.60;3.00;;;;;;;;;;5020064;28;20107;-66
2022/07/30 12:12:52;;;;;;;11.50;3.05;;;;;;;;;;5023201;28;20029;-66
2022/07/30 12:15:29;;;;;;;12.57;2.92;;;;;;;;;;5023470;28;20036;-66
2022/07/30 12:17:55;;;;;;;11.23;3.03;;;;;;;;;;5020295;28;20044;-71
2022/07/30 12:20:21;;;;;;;10.55;2.50;;;;;;;;;;5016667;28;20037;-64
2022/07/30 12:22:47;;;;;;;10.15;3.00;;;;;;;;;;5021940;28;20478;-64
2022/07/30 12:25:14;;;;;;;9.98;2.28;;;;;;;;;;5021473;28;20103;-64
2022/07/30 12:27:45;;;;;;;9.38;2.22;;;;;;;;;;5021297;28;20060;-63
2022/07/30 12:30:11;;;;;;;9.90;2.58;;;;;;;;;;5018239;28;20799;-64
2022/07/30 12:32:37;;;;;;;11.23;2.75;;;;;;;;;;5023080;28;20568;-64
2022/07/30 12:35:04;;;;;;;10.15;2.30;;;;;;;;;;5012492;28;20480;-64
2022/07/30 12:37:30;;;;;;;11.05;2.42;;;;;;;;;;5025997;28;20068;-64
2022/07/30 12:40:08;;;;;;;10.82;2.30;;;;;;;;;;5018453;28;20041;-64
2022/07/30 12:42:34;;;;;;;8.85;2.63;;;;;;;;;;5024231;28;20346;-64
2022/07/30 12:45:01;;;;;;;10.73;2.40;;;;;;;;;;5025192;28;20039;-64
2022/07/30 12:47:28;;;;;;;10.93;2.78;;;;;;;;;;5031072;28;20355;-64
2022/07/30 12:49:55;;;;;;;8.15;2.20;;;;;;;;;;5025360;28;20477;-64
2022/07/30 12:52:22;;;;;;;7.15;2.20;;;;;;;;;;5024420;28;20716;-64
2022/07/30 12:55:05;;;;;;;10.05;2.45;;;;;;;;;;5025047;28;20033;-65
2022/07/30 12:57:50;;;;;;;9.38;2.42;;;;;;;;;;5024350;28;20036;-65
2022/07/30 13:00:16;;;;;;;10.52;2.53;;;;;;;;;;5022571;28;20037;-70
2022/07/30 13:02:43;;;;;;;11.10;2.47;;;;;;;;;;5003606;28;20481;-69
2022/07/30 13:05:09;;;;;;;10.93;2.70;;;;;;;;;;5021761;28;20128;-71
2022/07/30 13:07:35;;;;;;;8.35;2.25;;;;;;;;;;5024887;28;20025;-71
2022/07/30 13:10:07;;;;;;;9.77;2.65;;;;;;;;;;5022988;28;20064;-70
2022/07/30 13:12:33;;;;;;;9.40;2.22;;;;;;;;;;5024668;28;20021;-71
2022/07/30 13:14:59;;;;;;;11.73;2.38;;;;;;;;;;5023468;28;20021;-71
2022/07/30 13:17:25;;;;;;;10.18;2.08;;;;;;;;;;5025412;28;20036;-68
2022/07/30 13:19:51;;;;;;;10.85;2.60;;;;;;;;;;5024873;28;20013;-67
2022/07/30 13:22:17;;;;;;;8.88;2.20;;;;;;;;;;5022907;28;20037;-67
2022/07/30 13:24:44;;;;;;;9.60;2.40;;;;;;;;;;5007450;28;20424;-68
2022/07/30 13:27:10;;;;;;;11.38;2.30;;;;;;;;;;5023073;28;20082;-66
2022/07/30 13:29:36;;;;;;;9.75;2.13;;;;;;;;;;5024911;28;20028;-67
2022/07/30 13:32:02;;;;;;;7.32;2.05;;;;;;;;;;5021125;28;20468;-67
2022/07/30 13:34:28;;;;;;;8.43;2.40;;;;;;;;;;5022375;28;20029;-68
2022/07/30 13:36:54;;;;;;;10.52;2.58;;;;;;;;;;5003304;28;20358;-68
2022/07/30 13:39:20;;;;;;;7.70;2.15;;;;;;;;;;5021004;28;20029;-70
2022/07/30 13:41:46;;;;;;;9.63;2.28;;;;;;;;;;5022305;28;20029;-66
2022/07/30 13:44:12;;;;;;;8.05;1.90;;;;;;;;;;5021769;28;20110;-66
2022/07/30 13:46:38;;;;;;;8.85;2.30;;;;;;;;;;5021124;28;20033;-66
2022/07/30 13:49:04;;;;;;;10.38;2.40;;;;;;;;;;5022859;28;20029;-66
2022/07/30 13:51:31;;;;;;;8.05;2.10;;;;;;;;;;5024072;28;20053;-65
2022/07/30 13:53:57;;;;;;;7.35;1.88;;;;;;;;;;5023603;28;20025;-65
2022/07/30 13:56:23;;;;;;;8.68;2.22;;;;;;;;;;5025150;28;20538;-65
2022/07/30 13:58:49;;;;;;;9.10;2.40;;;;;;;;;;5024137;28;20025;-66
2022/07/30 14:01:15;;;;;;;7.88;2.20;;;;;;;;;;5004782;28;20037;-65
2022/07/30 14:03:41;;;;;;;9.23;2.33;;;;;;;;;;5024679;28;20503;-65
2022/07/30 14:06:07;;;;;;;8.63;2.25;;;;;;;;;;5007869;28;20044;-64
2022/07/30 14:08:33;;;;;;;9.02;2.30;;;;;;;;;;5004242;28;20435;-67
2022/07/30 14:11:01;;;;;;;9.93;2.10;;;;;;;;;;5023021;28;20033;-65
2022/07/30 14:13:27;;;;;;;7.70;1.98;;;;;;;;;;5024879;28;20033;-65
2022/07/30 14:15:53;;;;;;;8.40;2.70;;;;;;;;;;5025032;28;20043;-65
2022/07/30 14:18:19;;;;;;;7.38;2.00;;;;;;;;;;5021393;28;20064;-65
2022/07/30 14:20:46;;;;;;;10.65;2.15;;;;;;;;;;5022749;28;20367;-66
2022/07/30 14:23:12;;;;;;;11.02;2.00;;;;;;;;;;5002412;28;20028;-65
2022/07/30 14:25:39;;;;;;;8.68;2.30;;;;;;;;;;5025855;28;20029;-65
2022/07/30 14:28:05;;;;;;;8.30;2.40;;;;;;;;;;5022897;28;20052;-65
2022/07/30 14:30:31;;;;;;;8.88;2.13;;;;;;;;;;5022896;28;20040;-66
2022/07/30 14:32:57;;;;;;;8.30;2.08;;;;;;;;;;5021393;28;20029;-66
2022/07/30 14:35:23;;;;;;;11.60;2.40;;;;;;;;;;5003386;28;21547;-64
2022/07/30 14:37:49;;;;;;;8.30;2.30;;;;;;;;;;5022148;28;20108;-68
2022/07/30 14:40:16;;;;;;;7.18;2.00;;;;;;;;;;5015532;28;22350;-67